createdAt,value
2019-02-21T00:01:40.947Z,61.44
2019-02-21T00:04:07.324Z,61.74
2019-02-21T00:06:33.635Z,62.17
2019-02-21T00:08:59.974Z,62.37
2019-02-21T00:11:26.584Z,62.25
2019-02-21T00:13:53.070Z,62.25
2019-02-21T00:16:19.637Z,62.39
2019-02-21T00:18:46.208Z,62.56
2019-02-21T00:21:12.926Z,62.50
2019-02-21T00:23:39.253Z,62.43
2019-02-21T00:26:05.849Z,62.84
2019-02-21T00:28:32.586Z,62.90
2019-02-21T00:30:59.220Z,62.61
2019-02-21T00:33:25.797Z,62.50
2019-02-21T00:35:52.138Z,62.80
2019-02-21T00:38:18.446Z,62.70
2019-02-21T00:40:46.059Z,62.36
2019-02-21T00:43:12.390Z,62.34
2019-02-21T00:45:38.797Z,62.50
2019-02-21T00:48:05.402Z,61.94
2019-02-21T00:50:31.740Z,62.04
2019-02-21T00:52:58.119Z,61.93
2019-02-21T00:55:24.457Z,61.52
2019-02-21T00:57:51.073Z,61.41
2019-02-21T01:00:17.669Z,61.37
2019-02-21T01:02:44.038Z,61.33
2019-02-21T01:05:10.364Z,62.04
2019-02-21T01:07:36.775Z,61.57
2019-02-21T01:10:05.546Z,61.58
2019-02-21T01:12:31.845Z,61.52
2019-02-21T01:14:58.228Z,61.46
2019-02-21T01:17:24.710Z,61.59
2019-02-21T01:19:51.017Z,61.51
2019-02-21T01:22:17.413Z,61.96
2019-02-21T01:24:43.902Z,61.90
2019-02-21T01:27:10.519Z,62.19
2019-02-21T01:29:36.844Z,62.12
2019-02-21T01:32:03.253Z,62.29
2019-02-21T01:34:30.567Z,62.30
2019-02-21T01:36:57.212Z,62.42
2019-02-21T01:39:23.944Z,62.20
2019-02-21T01:41:51.885Z,62.33
2019-02-21T01:44:18.959Z,62.39
2019-02-21T01:46:45.347Z,62.43
2019-02-21T01:49:11.770Z,62.34
2019-02-21T01:51:38.131Z,62.36
2019-02-21T01:54:04.975Z,62.35
2019-02-21T01:56:31.328Z,62.51
2019-02-21T01:58:57.624Z,62.68
2019-02-21T02:01:24.019Z,62.60
2019-02-21T02:03:50.632Z,62.71
2019-02-21T02:06:16.972Z,62.77
2019-02-21T02:08:43.322Z,62.53
2019-02-21T02:11:09.651Z,62.50
2019-02-21T02:13:36.276Z,62.71
2019-02-21T02:16:02.610Z,62.99
2019-02-21T02:18:29.202Z,62.89
2019-02-21T02:20:55.596Z,62.82
2019-02-21T02:23:21.940Z,63.09
2019-02-21T02:25:48.667Z,62.85
2019-02-21T02:28:15.272Z,62.79
2019-02-21T02:30:41.725Z,63.13
2019-02-21T02:33:08.566Z,62.97
2019-02-21T02:35:34.872Z,63.22
2019-02-21T02:38:01.191Z,63.34
2019-02-21T02:40:27.755Z,63.35
2019-02-21T02:42:54.458Z,63.25
2019-02-21T02:45:20.793Z,63.32
2019-02-21T02:47:47.405Z,63.02
2019-02-21T02:50:13.759Z,62.91
2019-02-21T02:52:40.097Z,62.76
2019-02-21T02:55:06.791Z,62.94
2019-02-21T02:57:33.180Z,62.95
2019-02-21T02:59:59.538Z,62.85
2019-02-21T03:02:26.186Z,62.93
2019-02-21T03:04:52.528Z,63.20
2019-02-21T03:07:19.202Z,63.17
2019-02-21T03:09:45.760Z,63.35
2019-02-21T03:12:12.128Z,63.03
2019-02-21T03:14:38.559Z,63.00
2019-02-21T03:17:04.922Z,62.83
2019-02-21T03:19:31.264Z,62.88
2019-02-21T03:21:57.583Z,62.95
2019-02-21T03:24:24.256Z,63.05
2019-02-21T03:26:50.850Z,62.93
2019-02-21T03:29:17.204Z,63.08
2019-02-21T03:31:54.620Z,63.24
2019-02-21T03:34:12.000Z,63.16
2019-02-21T03:36:38.637Z,63.58
2019-02-21T03:39:07.019Z,63.60
2019-02-21T03:41:33.841Z,63.62
2019-02-21T03:44:00.416Z,63.52
2019-02-21T03:46:27.067Z,63.35
2019-02-21T03:48:53.780Z,63.10
2019-02-21T03:51:20.512Z,63.08
2019-02-21T03:53:47.991Z,63.31
2019-02-21T03:56:14.338Z,63.26
2019-02-21T03:58:43.348Z,63.30
2019-02-21T04:01:09.593Z,63.57
2019-02-21T04:03:36.030Z,63.30
2019-02-21T04:06:02.597Z,63.23
2019-02-21T04:08:28.910Z,63.29
2019-02-21T04:10:56.419Z,63.10
2019-02-21T04:13:23.002Z,62.83
2019-02-21T04:15:50.313Z,62.34
2019-02-21T04:18:16.625Z,61.99
2019-02-21T04:20:42.989Z,61.72
2019-02-21T04:23:09.547Z,61.29
2019-02-21T04:25:35.885Z,61.41
2019-02-21T04:28:02.182Z,61.84
2019-02-21T04:30:28.511Z,61.68
2019-02-21T04:32:54.865Z,61.46
2019-02-21T04:35:21.440Z,61.19
2019-02-21T04:37:48.079Z,61.24
2019-02-21T04:40:14.370Z,61.32
2019-02-21T04:42:40.736Z,61.26
2019-02-21T04:45:07.054Z,61.11
2019-02-21T04:47:33.417Z,61.03
2019-02-21T04:49:59.720Z,60.92
2019-02-21T04:52:26.364Z,61.38
2019-02-21T04:54:52.721Z,61.40
2019-02-21T04:57:20.140Z,61.48
2019-02-21T04:59:46.432Z,61.47
2019-02-21T05:02:12.981Z,60.92
2019-02-21T05:04:39.551Z,61.03
2019-02-21T05:07:05.887Z,60.92
2019-02-21T05:09:32.492Z,61.03
2019-02-21T05:11:58.775Z,60.85
2019-02-21T05:14:25.154Z,60.89
2019-02-21T05:16:51.470Z,60.73
2019-02-21T05:19:17.847Z,60.81
2019-02-21T05:21:44.200Z,60.70
2019-02-21T05:24:10.529Z,60.58
2019-02-21T05:26:39.197Z,60.81
2019-02-21T05:29:07.913Z,60.99
2019-02-21T05:31:45.364Z,60.75
2019-02-21T05:34:16.534Z,60.62
2019-02-21T05:36:44.843Z,60.93
2019-02-21T05:39:13.060Z,61.11
2019-02-21T05:41:49.950Z,61.10
2019-02-21T05:44:20.839Z,60.91
2019-02-21T05:46:49.447Z,60.79
2019-02-21T05:49:17.886Z,61.08
2019-02-21T05:51:46.090Z,60.72
2019-02-21T05:54:17.050Z,60.07
2019-02-21T05:56:58.883Z,59.65
2019-02-21T05:59:36.158Z,59.57
2019-02-21T06:02:19.412Z,59.27
2019-02-21T06:04:56.909Z,59.07
2019-02-21T06:07:23.500Z,59.47
2019-02-21T06:09:54.699Z,59.30
2019-02-21T06:12:33.138Z,59.20
2019-02-21T06:14:56.059Z,59.16
2019-02-21T06:17:30.068Z,59.13
2019-02-21T06:20:07.223Z,58.86
2019-02-21T06:22:38.418Z,58.38
2019-02-21T06:25:15.631Z,58.59
2019-02-21T06:27:43.917Z,58.61
2019-02-21T06:30:14.068Z,58.41
2019-02-21T06:32:40.940Z,58.55
2019-02-21T06:35:08.855Z,58.71
2019-02-21T06:37:37.783Z,58.86
2019-02-21T06:40:05.077Z,58.87
2019-02-21T06:42:31.447Z,59.11
2019-02-21T06:44:58.201Z,59.07
2019-02-21T06:47:24.545Z,58.76
2019-02-21T06:49:50.871Z,58.56
2019-02-21T06:52:17.320Z,58.65
2019-02-21T06:54:43.626Z,59.03
2019-02-21T06:57:10.243Z,58.72
2019-02-21T06:59:42.508Z,59.00
2019-02-21T07:02:06.070Z,59.00
2019-02-21T07:04:33.351Z,58.76
2019-02-21T07:06:59.846Z,58.75
2019-02-21T07:09:26.427Z,59.01
2019-02-21T07:11:53.023Z,59.03
2019-02-21T07:14:19.331Z,59.11
2019-02-21T07:16:45.641Z,59.41
2019-02-21T07:19:12.240Z,59.41
2019-02-21T07:21:38.601Z,58.45
2019-02-21T07:24:04.932Z,58.31
2019-02-21T07:26:31.276Z,58.12
2019-02-21T07:28:58.419Z,58.07
2019-02-21T07:31:28.870Z,57.31
2019-02-21T07:33:54.094Z,57.08
2019-02-21T07:36:20.683Z,57.06
2019-02-21T07:38:47.334Z,56.91
2019-02-21T07:41:15.104Z,57.13
2019-02-21T07:43:41.549Z,57.48
2019-02-21T07:46:08.181Z,57.50
2019-02-21T07:48:36.349Z,57.68
2019-02-21T07:51:02.798Z,57.45
2019-02-21T07:53:29.440Z,58.01
2019-02-21T07:55:56.065Z,57.81
2019-02-21T07:58:22.751Z,57.63
2019-02-21T08:00:49.399Z,56.93
2019-02-21T08:03:15.725Z,55.90
2019-02-21T08:05:42.633Z,56.09
2019-02-21T08:08:09.361Z,55.51
2019-02-21T08:10:36.165Z,54.95
2019-02-21T08:13:02.906Z,54.85
2019-02-21T08:15:29.213Z,54.96
2019-02-21T08:17:55.571Z,54.55
2019-02-21T08:20:33.206Z,54.32
2019-02-21T08:22:50.187Z,53.88
2019-02-21T08:25:19.115Z,53.87
2019-02-21T08:27:44.754Z,53.58
2019-02-21T08:30:13.900Z,54.18
2019-02-21T08:32:58.810Z,54.25
2019-02-21T08:35:25.433Z,53.66
2019-02-21T08:37:51.735Z,54.17
2019-02-21T08:40:18.334Z,55.48
2019-02-21T08:42:44.644Z,54.94
2019-02-21T08:45:11.276Z,53.54
2019-02-21T08:47:37.569Z,54.63
2019-02-21T08:50:04.484Z,53.88
2019-02-21T08:52:31.086Z,53.61
2019-02-21T08:55:00.430Z,53.04
2019-02-21T08:57:26.758Z,53.46
2019-02-21T08:59:53.134Z,54.19
2019-02-21T09:02:19.523Z,53.82
2019-02-21T09:04:46.222Z,54.83
2019-02-21T09:07:12.831Z,54.81
2019-02-21T09:09:39.206Z,54.01
2019-02-21T09:12:05.867Z,53.52
2019-02-21T09:14:32.323Z,52.54
2019-02-21T09:17:00.595Z,53.25
2019-02-21T09:19:27.247Z,53.34
2019-02-21T09:21:53.695Z,51.80
2019-02-21T09:24:37.442Z,51.21
2019-02-21T09:26:48.574Z,52.35
2019-02-21T09:29:14.923Z,52.22
2019-02-21T09:31:41.515Z,51.16
2019-02-21T09:34:07.901Z,51.54
2019-02-21T09:36:34.241Z,53.13
2019-02-21T09:39:00.561Z,53.04
2019-02-21T09:41:28.728Z,51.70
2019-02-21T09:43:55.136Z,52.44
2019-02-21T09:46:21.757Z,52.98
2019-02-21T09:48:49.105Z,52.21
2019-02-21T09:51:18.037Z,51.87
2019-02-21T09:53:44.787Z,51.23
2019-02-21T09:56:11.104Z,50.69
2019-02-21T09:58:37.705Z,51.56
2019-02-21T10:01:04.058Z,50.34
2019-02-21T10:03:30.531Z,50.47
2019-02-21T10:05:57.195Z,49.60
2019-02-21T10:08:23.926Z,50.43
2019-02-21T10:10:50.530Z,51.48
2019-02-21T10:13:17.222Z,51.59
2019-02-21T10:15:43.573Z,51.68
2019-02-21T10:18:10.392Z,51.55
2019-02-21T10:20:36.965Z,50.35
2019-02-21T10:23:03.560Z,49.68
2019-02-21T10:25:30.181Z,50.84
2019-02-21T10:27:58.803Z,50.06
2019-02-21T10:30:25.137Z,51.78
2019-02-21T10:32:51.486Z,52.42
2019-02-21T10:35:18.131Z,52.50
2019-02-21T10:37:44.476Z,51.16
2019-02-21T10:40:13.636Z,51.65
2019-02-21T10:42:40.295Z,51.87
2019-02-21T10:45:18.337Z,52.06
2019-02-21T10:47:44.652Z,52.65
2019-02-21T10:50:21.182Z,52.38
2019-02-21T10:52:47.927Z,51.82
2019-02-21T10:55:15.058Z,52.10
2019-02-21T10:57:41.731Z,53.52
2019-02-21T11:00:14.002Z,55.09
2019-02-21T11:02:40.718Z,56.74
2019-02-21T11:05:08.412Z,58.78
2019-02-21T11:07:34.866Z,59.80
2019-02-21T11:10:02.102Z,59.23
2019-02-21T11:12:29.803Z,59.33
2019-02-21T11:14:57.124Z,60.31
2019-02-21T11:17:25.762Z,60.15
2019-02-21T11:19:51.972Z,61.03
2019-02-21T11:22:18.836Z,60.70
2019-02-21T11:24:45.468Z,58.79
2019-02-21T11:27:12.037Z,56.66
2019-02-21T11:29:38.834Z,56.21
2019-02-21T11:32:05.607Z,55.56
2019-02-21T11:34:31.959Z,55.63
2019-02-21T11:36:58.275Z,56.96
2019-02-21T11:39:24.575Z,58.31
2019-02-21T11:41:51.945Z,57.94
2019-02-21T11:44:18.438Z,58.53
2019-02-21T11:46:45.100Z,58.84
2019-02-21T11:49:11.452Z,58.59
2019-02-21T11:51:38.076Z,58.44
2019-02-21T11:54:04.695Z,58.53
2019-02-21T11:56:31.307Z,57.68
2019-02-21T11:58:57.905Z,56.52
2019-02-21T12:01:24.566Z,56.45
2019-02-21T12:03:51.257Z,56.45
2019-02-21T12:06:17.662Z,55.90
2019-02-21T12:08:44.120Z,55.90
2019-02-21T12:11:10.555Z,55.92
2019-02-21T12:13:37.117Z,57.15
2019-02-21T12:16:03.816Z,57.07
2019-02-21T12:18:31.449Z,56.20
2019-02-21T12:21:01.063Z,54.95
2019-02-21T12:23:27.489Z,52.64
2019-02-21T12:25:53.815Z,50.51
2019-02-21T12:28:20.146Z,49.12
2019-02-21T12:30:46.453Z,48.72
2019-02-21T12:33:12.780Z,49.23
2019-02-21T12:35:39.114Z,48.83
2019-02-21T12:38:05.683Z,50.25
2019-02-21T12:40:32.032Z,50.03
2019-02-21T12:42:58.636Z,47.70
2019-02-21T12:45:25.667Z,46.84
2019-02-21T12:47:53.839Z,45.49
2019-02-21T12:50:20.334Z,43.84
2019-02-21T12:52:46.639Z,43.95
2019-02-21T12:55:12.943Z,42.64
2019-02-21T12:57:39.552Z,45.38
2019-02-21T13:00:12.635Z,45.71
2019-02-21T13:02:39.333Z,44.53
2019-02-21T13:05:06.179Z,47.14
2019-02-21T13:07:32.809Z,47.51
2019-02-21T13:09:59.116Z,46.73
2019-02-21T13:12:25.724Z,45.55
2019-02-21T13:14:52.061Z,44.36
2019-02-21T13:17:18.405Z,43.49
2019-02-21T13:19:44.840Z,42.71
2019-02-21T13:22:11.517Z,44.28
2019-02-21T13:24:38.000Z,43.54
2019-02-21T13:27:04.404Z,44.85
2019-02-21T13:29:30.739Z,46.00
2019-02-21T13:31:57.305Z,46.06
2019-02-21T13:34:23.942Z,46.78
2019-02-21T13:36:50.679Z,47.98
2019-02-21T13:39:17.020Z,48.50
2019-02-21T13:41:43.321Z,47.67
2019-02-21T13:44:10.780Z,47.31
2019-02-21T13:46:40.687Z,47.32
2019-02-21T13:49:05.418Z,47.27
2019-02-21T13:51:32.293Z,48.00
2019-02-21T13:53:58.636Z,48.23
2019-02-21T13:56:25.285Z,47.30
2019-02-21T13:58:51.894Z,48.81
2019-02-21T14:01:18.268Z,48.61
2019-02-21T14:03:45.623Z,48.21
2019-02-21T14:06:12.042Z,48.73
2019-02-21T14:08:39.494Z,49.06
2019-02-21T14:11:06.169Z,48.00
2019-02-21T14:13:32.478Z,48.25
2019-02-21T14:15:58.820Z,48.28
2019-02-21T14:18:26.952Z,48.55
2019-02-21T14:20:53.314Z,47.37
2019-02-21T14:23:19.681Z,49.07
2019-02-21T14:25:46.032Z,49.10
2019-02-21T14:28:12.375Z,48.22
2019-02-21T14:30:38.948Z,48.15
2019-02-21T14:33:05.584Z,47.79
2019-02-21T14:35:32.195Z,48.06
2019-02-21T14:37:58.816Z,48.44
2019-02-21T14:40:25.480Z,47.78
2019-02-21T14:42:52.140Z,48.06
2019-02-21T14:45:22.578Z,47.63
2019-02-21T14:47:49.230Z,47.67
2019-02-21T14:50:15.725Z,49.54
2019-02-21T14:52:43.177Z,50.48
2019-02-21T14:55:13.167Z,51.10
2019-02-21T14:57:41.077Z,52.01
2019-02-21T15:00:14.306Z,52.25
2019-02-21T15:02:41.922Z,52.77
2019-02-21T15:05:10.149Z,52.93
2019-02-21T15:07:37.554Z,52.90
2019-02-21T15:10:07.151Z,54.05
2019-02-21T15:12:35.623Z,54.03
2019-02-21T15:15:05.248Z,54.13
2019-02-21T15:17:32.167Z,54.40
2019-02-21T15:19:58.786Z,54.61
2019-02-21T15:22:25.103Z,54.82
2019-02-21T15:24:51.788Z,53.86
2019-02-21T15:27:18.175Z,53.68
2019-02-21T15:29:44.507Z,53.15
2019-02-21T15:32:13.439Z,53.77
2019-02-21T15:34:39.390Z,54.87
2019-02-21T15:37:05.731Z,54.64
2019-02-21T15:39:32.303Z,53.98
2019-02-21T15:41:59.196Z,54.38
2019-02-21T15:44:25.522Z,53.98
2019-02-21T15:46:51.826Z,53.73
2019-02-21T15:49:18.202Z,53.52
2019-02-21T15:51:44.655Z,54.06
2019-02-21T15:54:12.571Z,54.06
2019-02-21T15:56:38.971Z,53.95
2019-02-21T15:59:05.696Z,54.10
2019-02-21T16:01:32.033Z,53.88
2019-02-21T16:03:58.374Z,53.90
2019-02-21T16:06:24.662Z,54.54
2019-02-21T16:08:50.983Z,54.63
2019-02-21T16:11:17.301Z,54.45
2019-02-21T16:13:43.648Z,54.77
2019-02-21T16:16:10.296Z,55.04
2019-02-21T16:18:36.622Z,55.36
2019-02-21T16:21:03.990Z,55.54
2019-02-21T16:23:30.718Z,55.62
2019-02-21T16:25:57.078Z,55.11
2019-02-21T16:28:23.459Z,54.86
2019-02-21T16:30:50.105Z,55.18
2019-02-21T16:33:16.758Z,55.37
2019-02-21T16:35:46.230Z,55.92
2019-02-21T16:38:12.573Z,56.24
2019-02-21T16:40:39.178Z,55.62
2019-02-21T16:43:05.777Z,55.56
2019-02-21T16:45:42.914Z,56.24
2019-02-21T16:48:00.547Z,56.79
2019-02-21T16:50:30.094Z,56.61
2019-02-21T16:52:55.178Z,56.57
2019-02-21T16:55:23.351Z,56.10
2019-02-21T16:57:51.043Z,56.03
2019-02-21T17:00:22.463Z,55.70
2019-02-21T17:02:49.320Z,55.78
2019-02-21T17:05:15.700Z,56.18
2019-02-21T17:07:42.451Z,56.58
2019-02-21T17:10:11.871Z,56.21
2019-02-21T17:12:38.261Z,56.52
2019-02-21T17:15:14.625Z,57.15
2019-02-21T17:17:41.360Z,57.81
2019-02-21T17:20:22.884Z,57.74
2019-02-21T17:22:49.238Z,58.26
2019-02-21T17:25:15.883Z,59.13
2019-02-21T17:27:44.082Z,59.45
2019-02-21T17:30:14.179Z,59.25
2019-02-21T17:32:40.783Z,59.52
2019-02-21T17:35:07.213Z,59.54
2019-02-21T17:37:33.869Z,59.56
2019-02-21T17:40:01.491Z,60.06
2019-02-21T17:42:28.441Z,59.67
2019-02-21T17:44:54.806Z,59.67
2019-02-21T17:47:21.408Z,59.66
2019-02-21T17:49:47.773Z,58.72
2019-02-21T17:52:14.106Z,58.36
2019-02-21T17:54:40.681Z,58.03
2019-02-21T17:57:06.998Z,58.55
2019-02-21T17:59:33.500Z,59.68
2019-02-21T18:02:00.224Z,60.77
2019-02-21T18:04:26.915Z,60.94
2019-02-21T18:06:53.678Z,61.21
2019-02-21T18:09:20.284Z,61.73
2019-02-21T18:11:47.063Z,62.30
2019-02-21T18:14:14.451Z,61.60
2019-02-21T18:16:40.787Z,61.90
2019-02-21T18:19:07.408Z,62.18
2019-02-21T18:21:33.975Z,63.68
2019-02-21T18:24:00.404Z,63.77
2019-02-21T18:26:26.720Z,63.17
2019-02-21T18:28:53.349Z,62.20
2019-02-21T18:31:21.597Z,62.96
2019-02-21T18:33:48.322Z,63.31
2019-02-21T18:36:16.318Z,63.73
2019-02-21T18:38:42.897Z,64.08
2019-02-21T18:41:09.570Z,64.33
2019-02-21T18:43:36.527Z,66.00
2019-02-21T18:46:03.130Z,66.52
2019-02-21T18:48:29.714Z,67.09
2019-02-21T18:50:56.324Z,66.82
2019-02-21T18:53:22.623Z,66.24
2019-02-21T18:55:49.051Z,67.12
2019-02-21T18:58:15.862Z,68.18
2019-02-21T19:00:43.035Z,67.68
2019-02-21T19:03:09.570Z,68.13
2019-02-21T19:05:36.854Z,68.96
2019-02-21T19:08:05.391Z,69.21
2019-02-21T19:10:35.252Z,69.05
2019-02-21T19:13:01.928Z,69.02
2019-02-21T19:15:29.317Z,70.04
2019-02-21T19:17:55.920Z,69.87
2019-02-21T19:20:22.416Z,69.94
2019-02-21T19:22:49.548Z,69.34
2019-02-21T19:25:16.034Z,70.80
2019-02-21T19:27:42.661Z,70.30
2019-02-21T19:30:26.142Z,70.16
2019-02-21T19:32:52.591Z,69.73
2019-02-21T19:35:19.119Z,69.95
2019-02-21T19:37:45.890Z,70.80
2019-02-21T19:40:13.035Z,70.96
2019-02-21T19:42:39.338Z,70.76
2019-02-21T19:45:08.816Z,70.81
2019-02-21T19:47:35.403Z,70.36
2019-02-21T19:50:06.653Z,70.25
2019-02-21T19:52:32.975Z,70.02
2019-02-21T19:54:59.656Z,70.45
2019-02-21T19:57:26.294Z,69.98
2019-02-21T19:59:52.973Z,69.86
2019-02-21T20:02:19.690Z,69.16
2019-02-21T20:04:46.565Z,69.00
2019-02-21T20:07:13.227Z,69.46
2019-02-21T20:09:39.911Z,70.02
2019-02-21T20:12:06.728Z,70.48
2019-02-21T20:14:33.104Z,71.10
2019-02-21T20:17:02.646Z,71.01
2019-02-21T20:19:29.400Z,70.73
2019-02-21T20:21:55.763Z,71.26
2019-02-21T20:24:22.191Z,71.86
2019-02-21T20:26:48.917Z,71.41
2019-02-21T20:29:15.532Z,71.04
2019-02-21T20:31:41.926Z,70.38
2019-02-21T20:34:08.599Z,70.80
2019-02-21T20:36:35.130Z,70.46
2019-02-21T20:39:01.827Z,69.91
2019-02-21T20:41:30.062Z,70.42
2019-02-21T20:43:56.450Z,70.46
2019-02-21T20:46:23.251Z,69.54
2019-02-21T20:48:49.722Z,71.10
2019-02-21T20:51:16.333Z,70.54
2019-02-21T20:53:45.403Z,70.23
2019-02-21T20:56:13.311Z,69.50
2019-02-21T20:58:42.525Z,69.15
2019-02-21T21:01:09.336Z,70.22
2019-02-21T21:03:36.544Z,71.43
2019-02-21T21:06:02.946Z,71.94
2019-02-21T21:08:29.322Z,73.04
2019-02-21T21:10:56.052Z,74.03
2019-02-21T21:13:22.436Z,74.84
2019-02-21T21:15:48.863Z,75.51
2019-02-21T21:18:15.736Z,76.17
2019-02-21T21:20:42.108Z,75.95
2019-02-21T21:23:08.641Z,76.38
2019-02-21T21:25:43.127Z,75.62
2019-02-21T21:28:09.883Z,75.75
2019-02-21T21:30:36.771Z,75.28
2019-02-21T21:33:03.652Z,75.61
2019-02-21T21:35:30.424Z,75.53
2019-02-21T21:37:56.869Z,76.16
2019-02-21T21:40:24.371Z,76.44
2019-02-21T21:42:51.433Z,76.68
2019-02-21T21:45:18.317Z,76.27
2019-02-21T21:47:44.976Z,76.19
2019-02-21T21:50:15.236Z,76.28
2019-02-21T21:52:41.906Z,76.10
2019-02-21T21:55:08.644Z,77.69
2019-02-21T21:57:35.315Z,77.24
2019-02-21T22:00:06.591Z,78.59
2019-02-21T22:02:35.271Z,79.25
2019-02-21T22:05:01.781Z,79.15
2019-02-21T22:07:29.241Z,79.64
2019-02-21T22:09:55.860Z,79.87
2019-02-21T22:12:22.540Z,80.29
2019-02-21T22:14:48.915Z,80.81
2019-02-21T22:17:15.273Z,82.46
2019-02-21T22:19:41.743Z,82.26
2019-02-21T22:22:08.178Z,81.50
2019-02-21T22:24:35.209Z,82.58
2019-02-21T22:27:01.815Z,82.56
2019-02-21T22:29:28.434Z,82.39
2019-02-21T22:31:54.756Z,83.78
2019-02-21T22:34:23.530Z,83.01
2019-02-21T22:36:49.862Z,83.42
2019-02-21T22:39:16.852Z,84.00
2019-02-21T22:41:44.937Z,84.48
2019-02-21T22:44:11.616Z,84.26
2019-02-21T22:46:38.210Z,84.08
2019-02-21T22:49:04.786Z,83.86
2019-02-21T22:51:31.163Z,84.66
2019-02-21T22:53:57.857Z,84.96
2019-02-21T22:56:24.262Z,85.13
2019-02-21T22:58:50.655Z,85.06
2019-02-21T23:01:22.271Z,84.58
2019-02-21T23:03:55.121Z,85.17
2019-02-21T23:06:47.802Z,85.27
2019-02-21T23:09:26.635Z,84.40
2019-02-21T23:11:45.637Z,85.53
2019-02-21T23:14:14.578Z,84.87
2019-02-21T23:16:41.274Z,85.06
2019-02-21T23:19:07.644Z,86.27
2019-02-21T23:21:33.965Z,86.54
2019-02-21T23:24:00.641Z,85.69
2019-02-21T23:26:28.760Z,85.27
2019-02-21T23:28:55.505Z,85.22
2019-02-21T23:31:22.095Z,85.34
2019-02-21T23:33:50.417Z,84.80
2019-02-21T23:36:17.232Z,85.56
2019-02-21T23:38:43.570Z,85.11
2019-02-21T23:41:10.995Z,85.13
2019-02-21T23:43:37.333Z,85.90
2019-02-21T23:46:03.835Z,85.27
2019-02-21T23:48:30.438Z,85.15
2019-02-21T23:50:56.753Z,86.00
2019-02-21T23:53:23.081Z,85.75
2019-02-21T23:55:49.502Z,85.94
2019-02-21T23:58:16.879Z,86.74
